sensor_id;sensor_type;location;lat;lon;timestamp;pressure;altitude;pressure_sealevel;temperature;humidity
45864;BME280;31579;52.354;16.974;2023-04-05T00:00:48;-36.4;;;-146.1;100.0
45864;BME280;31579;52.354;16.974;2023-04-05T00:01:52;-35.1;;;-146.1;100.0
45864;BME280;31579;52.354;16.974;2023-04-05T00:02:57;-31.8;;;-146.1;100.0
45864;BME280;31579;52.354;16.974;2023-04-05T00:03:59;-32.4;;;-146.1;100.0
45864;BME280;31579;52.354;16.974;2023-04-05T00:05:11;-15.0;;;-146.1;100.0
45864;BME280;31579;52.354;16.974;2023-04-05T00:06:15;-15.9;;;-146.1;100.0
45864;BME280;31579;52.354;16.974;2023-04-05T00:07:20;-15.0;;;-146.1;100.0
45864;BME280;31579;52.354;16.974;2023-04-05T00:08:24;-16.5;;;-146.1;100.0
45864;BME280;31579;52.354;16.974;2023-04-05T00:09:28;-21.0;;;-146.1;100.0
45864;BME280;31579;52.354;16.974;2023-04-05T00:10:33;-25.1;;;-146.1;100.0
45864;BME280;31579;52.354;16.974;2023-04-05T00:11:36;-29.6;;;-146.1;100.0
45864;BME280;31579;52.354;16.974;2023-04-05T00:12:39;-36.7;;;-146.1;100.0
45864;BME280;31579;52.354;16.974;2023-04-05T00:13:43;-35.2;;;-146.1;100.0
45864;BME280;31579;52.354;16.974;2023-04-05T00:14:48;-37.0;;;-146.1;100.0
45864;BME280;31579;52.354;16.974;2023-04-05T00:15:51;-39.5;;;-146.1;100.0
45864;BME280;31579;52.354;16.974;2023-04-05T00:16:55;-41.6;;;-146.1;100.0
45864;BME280;31579;52.354;16.974;2023-04-05T00:18:00;-38.7;;;-146.1;100.0
45864;BME280;31579;52.354;16.974;2023-04-05T00:19:03;-36.2;;;-146.1;100.0
45864;BME280;31579;52.354;16.974;2023-04-05T00:20:07;-42.5;;;-146.1;100.0
45864;BME280;31579;52.354;16.974;2023-04-05T00:21:11;-30.1;;;-146.1;100.0
45864;BME280;31579;52.354;16.974;2023-04-05T00:22:14;-25.3;;;-146.1;100.0
45864;BME280;31579;52.354;16.974;2023-04-05T00:23:19;-25.0;;;-146.1;100.0
45864;BME280;31579;52.354;16.974;2023-04-05T00:24:21;-33.9;;;-146.1;100.0
45864;BME280;31579;52.354;16.974;2023-04-05T00:25:25;-35.9;;;-146.1;100.0
45864;BME280;31579;52.354;16.974;2023-04-05T00:26:29;-42.7;;;-146.1;100.0
45864;BME280;31579;52.354;16.974;2023-04-05T00:27:33;-48.2;;;-146.1;100.0
45864;BME280;31579;52.354;16.974;2023-04-05T00:28:37;-51.2;;;-146.1;100.0
45864;BME280;31579;52.354;16.974;2023-04-05T00:29:41;-54.9;;;-146.1;100.0
45864;BME280;31579;52.354;16.974;2023-04-05T00:30:45;-56.7;;;-146.1;100.0
45864;BME280;31579;52.354;16.974;2023-04-05T00:31:49;-58.1;;;-146.1;100.0
45864;BME280;31579;52.354;16.974;2023-04-05T00:32:53;-58.4;;;-146.1;100.0
45864;BME280;31579;52.354;16.974;2023-04-05T00:33:56;-62.8;;;-146.1;100.0
45864;BME280;31579;52.354;16.974;2023-04-05T00:35:01;-59.3;;;-146.1;100.0
45864;BME280;31579;52.354;16.974;2023-04-05T00:37:06;-71.0;;;-146.1;100.0
45864;BME280;31579;52.354;16.974;2023-04-05T00:38:11;-65.3;;;-146.1;100.0
45864;BME280;31579;52.354;16.974;2023-04-05T00:39:14;-64.5;;;-146.1;100.0
45864;BME280;31579;52.354;16.974;2023-04-05T00:40:18;-67.9;;;-146.1;100.0
45864;BME280;31579;52.354;16.974;2023-04-05T00:41:21;-64.2;;;-146.1;100.0
45864;BME280;31579;52.354;16.974;2023-04-05T00:42:25;-63.8;;;-146.1;100.0
45864;BME280;31579;52.354;16.974;2023-04-05T00:43:30;-64.2;;;-146.1;100.0
45864;BME280;31579;52.354;16.974;2023-04-05T00:44:34;-64.8;;;-146.1;100.0
45864;BME280;31579;52.354;16.974;2023-04-05T00:45:37;-64.4;;;-146.1;100.0
45864;BME280;31579;52.354;16.974;2023-04-05T00:46:41;-63.3;;;-146.1;100.0
45864;BME280;31579;52.354;16.974;2023-04-05T00:47:45;-67.0;;;-146.1;100.0
45864;BME280;31579;52.354;16.974;2023-04-05T00:48:49;-68.8;;;-146.1;100.0
45864;BME280;31579;52.354;16.974;2023-04-05T00:49:53;-65.4;;;-146.1;100.0
45864;BME280;31579;52.354;16.974;2023-04-05T00:50:57;-68.2;;;-146.1;100.0
45864;BME280;31579;52.354;16.974;2023-04-05T00:52:00;-68.3;;;-146.1;100.0
45864;BME280;31579;52.354;16.974;2023-04-05T00:53:12;-57.2;;;-146.1;100.0
45864;BME280;31579;52.354;16.974;2023-04-05T00:54:16;-58.8;;;-146.1;100.0
45864;BME280;31579;52.354;16.974;2023-04-05T00:55:20;-57.5;;;-146.1;100.0
45864;BME280;31579;52.354;16.974;2023-04-05T00:56:23;-59.6;;;-146.1;100.0
45864;BME280;31579;52.354;16.974;2023-04-05T00:57:26;-58.6;;;-146.1;100.0
45864;BME280;31579;52.354;16.974;2023-04-05T00:58:29;-57.6;;;-146.1;100.0
45864;BME280;31579;52.354;16.974;2023-04-05T00:59:34;-51.4;;;-146.1;100.0
45864;BME280;31579;52.354;16.974;2023-04-05T01:00:38;-49.7;;;-146.1;100.0
45864;BME280;31579;52.354;16.974;2023-04-05T01:04:04;-48.8;;;-146.1;100.0
45864;BME280;31579;52.354;16.974;2023-04-05T01:05:11;-44.4;;;-146.1;100.0
45864;BME280;31579;52.354;16.974;2023-04-05T01:06:15;-48.3;;;-146.1;100.0
45864;BME280;31579;52.354;16.974;2023-04-05T01:09:28;-47.3;;;-146.1;100.0
45864;BME280;31579;52.354;16.974;2023-04-05T01:10:27;-46.8;;;-146.1;100.0
45864;BME280;31579;52.354;16.974;2023-04-05T01:11:29;-51.2;;;-146.1;100.0
45864;BME280;31579;52.354;16.974;2023-04-05T01:12:34;-48.0;;;-146.1;100.0
45864;BME280;31579;52.354;16.974;2023-04-05T01:13:38;-47.6;;;-146.1;100.0
45864;BME280;31579;52.354;16.974;2023-04-05T01:15:45;-46.9;;;-146.1;100.0
45864;BME280;31579;52.354;16.974;2023-04-05T01:16:49;-47.3;;;-146.1;100.0
45864;BME280;31579;52.354;16.974;2023-04-05T01:17:52;-52.9;;;-146.1;100.0
45864;BME280;31579;52.354;16.974;2023-04-05T01:18:55;-54.4;;;-146.1;100.0
45864;BME280;31579;52.354;16.974;2023-04-05T01:19:58;-54.1;;;-146.1;100.0
45864;BME280;31579;52.354;16.974;2023-04-05T01:27:38;-52.3;;;-146.1;100.0
45864;BME280;31579;52.354;16.974;2023-04-05T01:30:43;-57.0;;;-146.1;100.0
45864;BME280;31579;52.354;16.974;2023-04-05T01:36:02;-63.4;;;-146.1;100.0
45864;BME280;31579;52.354;16.974;2023-04-05T01:37:06;-64.2;;;-146.1;100.0
45864;BME280;31579;52.354;16.974;2023-04-05T01:38:22;-68.0;;;-146.1;100.0
45864;BME280;31579;52.354;16.974;2023-04-05T01:39:23;-69.1;;;-146.1;100.0
45864;BME280;31579;52.354;16.974;2023-04-05T01:40:26;-70.9;;;-146.1;100.0
45864;BME280;31579;52.354;16.974;2023-04-05T01:41:30;-73.1;;;-146.1;100.0
45864;BME280;31579;52.354;16.974;2023-04-05T01:42:34;-71.5;;;-146.1;100.0
45864;BME280;31579;52.354;16.974;2023-04-05T01:43:37;-75.0;;;-146.1;100.0
45864;BME280;31579;52.354;16.974;2023-04-05T01:44:40;-76.2;;;-146.1;100.0
45864;BME280;31579;52.354;16.974;2023-04-05T01:45:44;-77.2;;;-146.1;100.0
45864;BME280;31579;52.354;16.974;2023-04-05T01:46:47;-74.9;;;-146.1;100.0
45864;BME280;31579;52.354;16.974;2023-04-05T01:47:51;-75.0;;;-146.1;100.0
45864;BME280;31579;52.354;16.974;2023-04-05T01:48:54;-78.1;;;-146.1;100.0
45864;BME280;31579;52.354;16.974;2023-04-05T01:49:57;-79.1;;;-146.1;100.0
45864;BME280;31579;52.354;16.974;2023-04-05T01:51:01;-77.4;;;-146.1;100.0
45864;BME280;31579;52.354;16.974;2023-04-05T01:52:04;-80.3;;;-146.1;100.0
45864;BME280;31579;52.354;16.974;2023-04-05T01:53:07;-81.1;;;-146.1;100.0
45864;BME280;31579;52.354;16.974;2023-04-05T01:54:10;-81.8;;;-146.1;100.0
45864;BME280;31579;52.354;16.974;2023-04-05T01:55:13;-82.6;;;-146.1;100.0
45864;BME280;31579;52.354;16.974;2023-04-05T01:56:17;-80.7;;;-146.1;100.0
45864;BME280;31579;52.354;16.974;2023-04-05T01:57:20;-83.5;;;-146.1;100.0
45864;BME280;31579;52.354;16.974;2023-04-05T01:58:23;-84.6;;;-146.1;100.0
45864;BME280;31579;52.354;16.974;2023-04-05T01:59:26;-85.7;;;-146.1;100.0
45864;BME280;31579;52.354;16.974;2023-04-05T02:00:30;-86.2;;;-146.1;100.0
45864;BME280;31579;52.354;16.974;2023-04-05T02:01:33;-86.9;;;-146.1;100.0
45864;BME280;31579;52.354;16.974;2023-04-05T02:02:36;-87.8;;;-146.1;100.0
45864;BME280;31579;52.354;16.974;2023-04-05T02:03:39;-88.4;;;-146.1;100.0
45864;BME280;31579;52.354;16.974;2023-04-05T02:04:42;-89.5;;;-146.1;100.0
45864;BME280;31579;52.354;16.974;2023-04-05T02:05:45;-90.8;;;-146.1;100.0
45864;BME280;31579;52.354;16.974;2023-04-05T02:06:48;-92.6;;;-146.1;100.0
45864;BME280;31579;52.354;16.974;2023-04-05T02:07:51;-94.1;;;-146.1;100.0
45864;BME280;31579;52.354;16.974;2023-04-05T02:08:54;-95.1;;;-146.1;100.0
45864;BME280;31579;52.354;16.974;2023-04-05T02:09:57;-95.9;;;-146.1;100.0
45864;BME280;31579;52.354;16.974;2023-04-05T02:11:08;-90.6;;;-146.1;100.0
45864;BME280;31579;52.354;16.974;2023-04-05T02:12:11;-94.2;;;-146.1;100.0
45864;BME280;31579;52.354;16.974;2023-04-05T02:13:14;-95.1;;;-146.1;100.0
45864;BME280;31579;52.354;16.974;2023-04-05T02:14:17;-95.4;;;-146.1;100.0
45864;BME280;31579;52.354;16.974;2023-04-05T02:15:20;-96.4;;;-146.1;100.0
45864;BME280;31579;52.354;16.974;2023-04-05T02:16:23;-97.4;;;-146.1;100.0
45864;BME280;31579;52.354;16.974;2023-04-05T02:17:26;-99.0;;;-146.1;100.0
45864;BME280;31579;52.354;16.974;2023-04-05T02:18:29;-100.3;;;-146.1;100.0
45864;BME280;31579;52.354;16.974;2023-04-05T02:19:33;-99.7;;;-146.1;100.0
45864;BME280;31579;52.354;16.974;2023-04-05T02:20:36;-102.3;;;-146.1;100.0
45864;BME280;31579;52.354;16.974;2023-04-05T02:21:39;-103.7;;;-146.1;100.0
45864;BME280;31579;52.354;16.974;2023-04-05T02:22:42;-104.7;;;-146.1;100.0
45864;BME280;31579;52.354;16.974;2023-04-05T02:23:45;-105.8;;;-146.1;100.0
45864;BME280;31579;52.354;16.974;2023-04-05T02:24:48;-107.0;;;-146.1;100.0
45864;BME280;31579;52.354;16.974;2023-04-05T02:25:51;-108.2;;;-146.1;100.0
45864;BME280;31579;52.354;16.974;2023-04-05T02:26:54;-109.2;;;-146.1;100.0
45864;BME280;31579;52.354;16.974;2023-04-05T02:27:57;-109.9;;;-146.1;100.0
45864;BME280;31579;52.354;16.974;2023-04-05T02:29:01;-109.0;;;-146.1;100.0
45864;BME280;31579;52.354;16.974;2023-04-05T02:30:04;-112.4;;;-146.1;100.0
45864;BME280;31579;52.354;16.974;2023-04-05T02:32:09;-112.5;;;-146.1;100.0
45864;BME280;31579;52.354;16.974;2023-04-05T02:33:12;-113.1;;;-146.1;100.0
45864;BME280;31579;52.354;16.974;2023-04-05T02:34:15;-113.5;;;-146.1;100.0
45864;BME280;31579;52.354;16.974;2023-04-05T02:35:18;-114.4;;;-146.1;100.0
45864;BME280;31579;52.354;16.974;2023-04-05T02:36:21;-115.0;;;-146.1;100.0
45864;BME280;31579;52.354;16.974;2023-04-05T02:37:24;-115.7;;;-146.1;100.0
45864;BME280;31579;52.354;16.974;2023-04-05T02:38:27;-116.6;;;-146.1;100.0
45864;BME280;31579;52.354;16.974;2023-04-05T02:39:30;-117.4;;;-146.1;100.0
45864;BME280;31579;52.354;16.974;2023-04-05T02:40:34;-118.4;;;-146.1;100.0
45864;BME280;31579;52.354;16.974;2023-04-05T02:41:37;-119.0;;;-146.1;100.0
45864;BME280;31579;52.354;16.974;2023-04-05T02:42:40;-119.9;;;-146.1;100.0
45864;BME280;31579;52.354;16.974;2023-04-05T02:43:43;-120.6;;;-146.1;100.0
45864;BME280;31579;52.354;16.974;2023-04-05T02:44:46;-121.0;;;-146.1;100.0
45864;BME280;31579;52.354;16.974;2023-04-05T02:45:49;-121.3;;;-146.1;100.0
45864;BME280;31579;52.354;16.974;2023-04-05T02:46:52;-121.8;;;-146.1;100.0
45864;BME280;31579;52.354;16.974;2023-04-05T02:47:55;-122.2;;;-146.1;100.0
45864;BME280;31579;52.354;16.974;2023-04-05T02:48:58;-122.6;;;-146.1;100.0
45864;BME280;31579;52.354;16.974;2023-04-05T02:50:00;-124.1;;;-146.1;100.0
45864;BME280;31579;52.354;16.974;2023-04-05T02:51:04;-123.6;;;-146.1;100.0
45864;BME280;31579;52.354;16.974;2023-04-05T02:52:07;-124.0;;;-146.1;100.0
45864;BME280;31579;52.354;16.974;2023-04-05T02:53:10;-124.0;;;-146.1;100.0
45864;BME280;31579;52.354;16.974;2023-04-05T02:54:14;-124.1;;;-146.1;100.0
45864;BME280;31579;52.354;16.974;2023-04-05T02:55:17;-124.5;;;-146.1;100.0
45864;BME280;31579;52.354;16.974;2023-04-05T02:56:20;-125.4;;;-146.1;100.0
45864;BME280;31579;52.354;16.974;2023-04-05T02:57:24;-126.2;;;-146.1;100.0
45864;BME280;31579;52.354;16.974;2023-04-05T02:58:27;-126.8;;;-146.1;100.0
45864;BME280;31579;52.354;16.974;2023-04-05T02:59:30;-127.3;;;-146.1;100.0
45864;BME280;31579;52.354;16.974;2023-04-05T03:00:33;-127.9;;;-146.1;100.0
45864;BME280;31579;52.354;16.974;2023-04-05T03:01:36;-128.5;;;-146.1;100.0
45864;BME280;31579;52.354;16.974;2023-04-05T03:02:39;-129.1;;;-146.1;100.0
45864;BME280;31579;52.354;16.974;2023-04-05T03:03:42;-129.5;;;-146.1;100.0
45864;BME280;31579;52.354;16.974;2023-04-05T03:04:45;-130.0;;;-146.1;100.0
45864;BME280;31579;52.354;16.974;2023-04-05T03:05:56;-130.4;;;-146.1;100.0
45864;BME280;31579;52.354;16.974;2023-04-05T03:06:51;-130.7;;;-146.1;100.0
45864;BME280;31579;52.354;16.974;2023-04-05T03:07:54;-131.0;;;-146.1;100.0
45864;BME280;31579;52.354;16.974;2023-04-05T03:08:57;-131.3;;;-146.1;100.0
45864;BME280;31579;52.354;16.974;2023-04-05T03:10:01;-130.7;;;-146.1;100.0
45864;BME280;31579;52.354;16.974;2023-04-05T03:11:05;-132.3;;;-146.1;100.0
45864;BME280;31579;52.354;16.974;2023-04-05T03:12:07;-132.0;;;-146.1;100.0
45864;BME280;31579;52.354;16.974;2023-04-05T03:13:10;-132.2;;;-146.1;100.0
45864;BME280;31579;52.354;16.974;2023-04-05T03:14:13;-132.4;;;-146.1;100.0
45864;BME280;31579;52.354;16.974;2023-04-05T03:15:16;-132.7;;;-146.1;100.0
45864;BME280;31579;52.354;16.974;2023-04-05T03:16:20;-132.9;;;-146.1;100.0
45864;BME280;31579;52.354;16.974;2023-04-05T03:17:23;-133.2;;;-146.1;100.0
45864;BME280;31579;52.354;16.974;2023-04-05T03:18:26;-133.4;;;-146.1;100.0
45864;BME280;31579;52.354;16.974;2023-04-05T03:19:29;-133.5;;;-146.1;100.0
45864;BME280;31579;52.354;16.974;2023-04-05T03:20:34;-133.6;;;-146.1;100.0
45864;BME280;31579;52.354;16.974;2023-04-05T03:21:48;-133.3;;;-146.1;100.0
45864;BME280;31579;52.354;16.974;2023-04-05T03:22:51;-133.3;;;-146.1;100.0
45864;BME280;31579;52.354;16.974;2023-04-05T03:23:54;-133.5;;;-146.1;100.0
45864;BME280;31579;52.354;16.974;2023-04-05T03:24:57;-133.8;;;-146.1;100.0
45864;BME280;31579;52.354;16.974;2023-04-05T03:26:00;-133.8;;;-146.1;100.0
45864;BME280;31579;52.354;16.974;2023-04-05T03:27:03;-134.2;;;-146.1;100.0
45864;BME280;31579;52.354;16.974;2023-04-05T03:28:06;-134.7;;;-146.1;100.0
45864;BME280;31579;52.354;16.974;2023-04-05T03:29:09;-135.2;;;-146.1;100.0
45864;BME280;31579;52.354;16.974;2023-04-05T03:30:12;-135.8;;;-146.1;100.0
45864;BME280;31579;52.354;16.974;2023-04-05T03:31:15;-136.1;;;-146.1;100.0
45864;BME280;31579;52.354;16.974;2023-04-05T03:32:18;-136.2;;;-146.1;100.0
45864;BME280;31579;52.354;16.974;2023-04-05T03:33:21;-136.7;;;-146.1;100.0
45864;BME280;31579;52.354;16.974;2023-04-05T03:34:24;-137.0;;;-146.1;100.0
45864;BME280;31579;52.354;16.974;2023-04-05T03:35:28;-137.3;;;-146.1;100.0
45864;BME280;31579;52.354;16.974;2023-04-05T03:36:30;-137.2;;;-146.1;100.0
45864;BME280;31579;52.354;16.974;2023-04-05T03:37:34;-137.5;;;-146.1;100.0
45864;BME280;31579;52.354;16.974;2023-04-05T03:38:37;-138.0;;;-146.1;100.0
45864;BME280;31579;52.354;16.974;2023-04-05T03:39:40;-138.4;;;-146.1;100.0
45864;BME280;31579;52.354;16.974;2023-04-05T03:40:43;-138.7;;;-146.1;100.0
45864;BME280;31579;52.354;16.974;2023-04-05T03:41:45;-139.3;;;-146.1;100.0
45864;BME280;31579;52.354;16.974;2023-04-05T03:42:49;-139.1;;;-146.1;100.0
45864;BME280;31579;52.354;16.974;2023-04-05T03:43:52;-139.5;;;-146.1;100.0
45864;BME280;31579;52.354;16.974;2023-04-05T03:44:55;-139.9;;;-146.1;100.0
45864;BME280;31579;52.354;16.974;2023-04-05T03:45:58;-140.3;;;-146.1;100.0
45864;BME280;31579;52.354;16.974;2023-04-05T03:47:02;-140.0;;;-146.1;100.0
45864;BME280;31579;52.354;16.974;2023-04-05T03:48:05;-140.5;;;-146.1;100.0
45864;BME280;31579;52.354;16.974;2023-04-05T03:49:08;-140.8;;;-146.1;100.0
45864;BME280;31579;52.354;16.974;2023-04-05T03:50:11;-141.1;;;-146.1;100.0
45864;BME280;31579;52.354;16.974;2023-04-05T03:51:14;-141.3;;;-146.1;100.0
45864;BME280;31579;52.354;16.974;2023-04-05T03:52:17;-141.5;;;-146.1;100.0
45864;BME280;31579;52.354;16.974;2023-04-05T03:53:20;-141.6;;;-146.1;100.0
45864;BME280;31579;52.354;16.974;2023-04-05T03:54:23;-141.8;;;-146.1;100.0
45864;BME280;31579;52.354;16.974;2023-04-05T03:55:26;-141.8;;;-146.1;100.0
45864;BME280;31579;52.354;16.974;2023-04-05T03:56:29;-141.9;;;-146.1;100.0
45864;BME280;31579;52.354;16.974;2023-04-05T03:57:32;-142.0;;;-146.1;100.0
45864;BME280;31579;52.354;16.974;2023-04-05T03:58:35;-142.2;;;-146.1;100.0
45864;BME280;31579;52.354;16.974;2023-04-05T03:59:38;-142.4;;;-146.1;100.0
45864;BME280;31579;52.354;16.974;2023-04-05T04:00:41;-142.5;;;-146.1;100.0
45864;BME280;31579;52.354;16.974;2023-04-05T04:01:45;-142.5;;;-146.1;100.0
45864;BME280;31579;52.354;16.974;2023-04-05T04:02:48;-142.7;;;-146.1;100.0
45864;BME280;31579;52.354;16.974;2023-04-05T04:03:52;-142.9;;;-146.1;100.0
45864;BME280;31579;52.354;16.974;2023-04-05T04:04:55;-143.0;;;-146.1;100.0
45864;BME280;31579;52.354;16.974;2023-04-05T04:05:58;-143.1;;;-146.1;100.0
45864;BME280;31579;52.354;16.974;2023-04-05T04:07:02;-142.8;;;-146.1;100.0
45864;BME280;31579;52.354;16.974;2023-04-05T04:08:06;-142.3;;;-146.1;100.0
45864;BME280;31579;52.354;16.974;2023-04-05T04:09:09;-141.5;;;-146.1;100.0
45864;BME280;31579;52.354;16.974;2023-04-05T04:10:12;-141.3;;;-146.1;100.0
45864;BME280;31579;52.354;16.974;2023-04-05T04:11:15;-141.1;;;-146.1;100.0
45864;BME280;31579;52.354;16.974;2023-04-05T04:12:18;-140.9;;;-146.1;100.0
45864;BME280;31579;52.354;16.974;2023-04-05T04:13:21;-140.7;;;-146.1;100.0
45864;BME280;31579;52.354;16.974;2023-04-05T04:14:24;-140.5;;;-146.1;100.0
45864;BME280;31579;52.354;16.974;2023-04-05T04:15:27;-140.1;;;-146.1;100.0
45864;BME280;31579;52.354;16.974;2023-04-05T04:16:30;-139.5;;;-146.1;100.0
45864;BME280;31579;52.354;16.974;2023-04-05T04:17:34;-139.0;;;-146.1;100.0
45864;BME280;31579;52.354;16.974;2023-04-05T04:18:36;-138.7;;;-146.1;100.0
45864;BME280;31579;52.354;16.974;2023-04-05T04:19:39;-138.4;;;-146.1;100.0
45864;BME280;31579;52.354;16.974;2023-04-05T04:20:42;-138.1;;;-146.1;100.0
45864;BME280;31579;52.354;16.974;2023-04-05T04:21:45;-137.2;;;-146.1;100.0
45864;BME280;31579;52.354;16.974;2023-04-05T04:22:48;-139.6;;;-146.1;100.0
45864;BME280;31579;52.354;16.974;2023-04-05T04:23:51;-139.7;;;-146.1;100.0
45864;BME280;31579;52.354;16.974;2023-04-05T04:24:54;-139.2;;;-146.1;100.0
45864;BME280;31579;52.354;16.974;2023-04-05T04:25:57;-139.2;;;-146.1;100.0
45864;BME280;31579;52.354;16.974;2023-04-05T04:27:00;-139.3;;;-146.1;100.0
45864;BME280;31579;52.354;16.974;2023-04-05T04:28:15;-143.0;;;-146.1;100.0
45864;BME280;31579;52.354;16.974;2023-04-05T04:29:18;-133.4;;;-146.1;100.0
45864;BME280;31579;52.354;16.974;2023-04-05T04:30:21;-131.9;;;-146.1;100.0
45864;BME280;31579;52.354;16.974;2023-04-05T04:31:24;-131.7;;;-146.1;100.0
45864;BME280;31579;52.354;16.974;2023-04-05T04:32:27;-130.9;;;-146.1;100.0
45864;BME280;31579;52.354;16.974;2023-04-05T04:33:30;-130.2;;;-146.1;100.0
45864;BME280;31579;52.354;16.974;2023-04-05T04:34:33;-129.7;;;-146.1;100.0
45864;BME280;31579;52.354;16.974;2023-04-05T04:35:36;-128.7;;;-146.1;100.0
45864;BME280;31579;52.354;16.974;2023-04-05T04:36:40;-127.9;;;-146.1;100.0
45864;BME280;31579;52.354;16.974;2023-04-05T04:37:44;-127.6;;;-146.1;100.0
45864;BME280;31579;52.354;16.974;2023-04-05T04:38:46;-126.9;;;-146.1;100.0
45864;BME280;31579;52.354;16.974;2023-04-05T04:39:49;-126.0;;;-146.1;100.0
45864;BME280;31579;52.354;16.974;2023-04-05T04:40:52;-124.9;;;-146.1;100.0
45864;BME280;31579;52.354;16.974;2023-04-05T04:41:56;-124.0;;;-146.1;100.0
45864;BME280;31579;52.354;16.974;2023-04-05T04:42:58;-125.5;;;-146.1;100.0
45864;BME280;31579;52.354;16.974;2023-04-05T04:44:01;-122.6;;;-146.1;100.0
45864;BME280;31579;52.354;16.974;2023-04-05T04:45:04;-127.2;;;-146.1;100.0
45864;BME280;31579;52.354;16.974;2023-04-05T04:46:07;-126.7;;;-146.1;100.0
45864;BME280;31579;52.354;16.974;2023-04-05T04:47:09;-123.5;;;-146.1;100.0
45864;BME280;31579;52.354;16.974;2023-04-05T04:48:13;-119.5;;;-146.1;100.0
45864;BME280;31579;52.354;16.974;2023-04-05T04:49:15;-123.8;;;-146.1;100.0
45864;BME280;31579;52.354;16.974;2023-04-05T04:50:19;-122.9;;;-146.1;100.0
45864;BME280;31579;52.354;16.974;2023-04-05T04:51:22;-120.3;;;-146.1;100.0
45864;BME280;31579;52.354;16.974;2023-04-05T04:52:24;-117.4;;;-146.1;100.0
45864;BME280;31579;52.354;16.974;2023-04-05T04:53:27;-115.7;;;-146.1;100.0
45864;BME280;31579;52.354;16.974;2023-04-05T04:54:32;-115.7;;;-146.1;100.0
45864;BME280;31579;52.354;16.974;2023-04-05T04:55:34;-116.0;;;-146.1;100.0
45864;BME280;31579;52.354;16.974;2023-04-05T04:56:37;-114.6;;;-146.1;100.0
45864;BME280;31579;52.354;16.974;2023-04-05T04:57:41;-113.6;;;-146.1;100.0
45864;BME280;31579;52.354;16.974;2023-04-05T04:58:43;-113.0;;;-146.1;100.0
45864;BME280;31579;52.354;16.974;2023-04-05T04:59:46;-111.6;;;-146.1;100.0
45864;BME280;31579;52.354;16.974;2023-04-05T05:00:49;-110.4;;;-146.1;100.0
45864;BME280;31579;52.354;16.974;2023-04-05T05:01:52;-108.3;;;-146.1;100.0
45864;BME280;31579;52.354;16.974;2023-04-05T05:02:55;-106.6;;;-146.1;100.0
45864;BME280;31579;52.354;16.974;2023-04-05T05:03:58;-104.4;;;-146.1;100.0
45864;BME280;31579;52.354;16.974;2023-04-05T05:05:07;-120.5;;;-146.1;100.0
45864;BME280;31579;52.354;16.974;2023-04-05T05:06:10;-94.3;;;-146.1;100.0
45864;BME280;31579;52.354;16.974;2023-04-05T05:07:12;-91.0;;;-146.1;100.0
45864;BME280;31579;52.354;16.974;2023-04-05T05:08:15;-90.1;;;-146.1;100.0
45864;BME280;31579;52.354;16.974;2023-04-05T05:09:18;-89.1;;;-146.1;100.0
45864;BME280;31579;52.354;16.974;2023-04-05T05:10:21;-88.5;;;-146.1;100.0
45864;BME280;31579;52.354;16.974;2023-04-05T05:11:24;-87.4;;;-146.1;100.0
45864;BME280;31579;52.354;16.974;2023-04-05T05:12:27;-86.6;;;-146.1;100.0
45864;BME280;31579;52.354;16.974;2023-04-05T05:13:30;-86.7;;;-146.1;100.0
45864;BME280;31579;52.354;16.974;2023-04-05T05:14:34;-86.9;;;-146.1;100.0
45864;BME280;31579;52.354;16.974;2023-04-05T05:15:38;-86.1;;;-146.1;100.0
45864;BME280;31579;52.354;16.974;2023-04-05T05:16:39;-84.6;;;-146.1;100.0
45864;BME280;31579;52.354;16.974;2023-04-05T05:17:43;-82.0;;;-146.1;100.0
45864;BME280;31579;52.354;16.974;2023-04-05T05:18:46;-79.7;;;-146.1;100.0
45864;BME280;31579;52.354;16.974;2023-04-05T05:19:55;-124.0;;;-146.1;100.0
45864;BME280;31579;52.354;16.974;2023-04-05T05:20:59;-58.5;;;-146.1;100.0
45864;BME280;31579;52.354;16.974;2023-04-05T05:22:01;-58.1;;;-146.1;100.0
45864;BME280;31579;52.354;16.974;2023-04-05T05:23:04;-60.6;;;-146.1;100.0
45864;BME280;31579;52.354;16.974;2023-04-05T05:24:07;-63.5;;;-146.1;100.0
45864;BME280;31579;52.354;16.974;2023-04-05T05:25:10;-64.0;;;-146.1;100.0
45864;BME280;31579;52.354;16.974;2023-04-05T05:26:13;-64.3;;;-146.1;100.0
45864;BME280;31579;52.354;16.974;2023-04-05T05:27:16;-64.8;;;-146.1;100.0
45864;BME280;31579;52.354;16.974;2023-04-05T05:28:19;-64.5;;;-146.1;100.0
45864;BME280;31579;52.354;16.974;2023-04-05T05:29:23;-71.1;;;-146.1;100.0
45864;BME280;31579;52.354;16.974;2023-04-05T05:30:26;-57.3;;;-146.1;100.0
45864;BME280;31579;52.354;16.974;2023-04-05T05:31:29;-51.7;;;-146.1;100.0
45864;BME280;31579;52.354;16.974;2023-04-05T05:32:33;-48.3;;;-146.1;100.0
45864;BME280;31579;52.354;16.974;2023-04-05T05:33:37;-54.7;;;-146.1;100.0
45864;BME280;31579;52.354;16.974;2023-04-05T05:34:41;-49.9;;;-146.1;100.0
45864;BME280;31579;52.354;16.974;2023-04-05T05:36:48;-46.5;;;-146.1;100.0
45864;BME280;31579;52.354;16.974;2023-04-05T05:37:50;-55.3;;;-146.1;100.0
45864;BME280;31579;52.354;16.974;2023-04-05T05:38:55;-42.1;;;-146.1;100.0
45864;BME280;31579;52.354;16.974;2023-04-05T05:40:00;-45.6;;;-146.1;100.0
45864;BME280;31579;52.354;16.974;2023-04-05T05:41:04;-45.7;;;-146.1;100.0
45864;BME280;31579;52.354;16.974;2023-04-05T05:42:08;-42.8;;;-146.1;100.0
45864;BME280;31579;52.354;16.974;2023-04-05T05:43:12;-40.1;;;-146.1;100.0
45864;BME280;31579;52.354;16.974;2023-04-05T05:44:16;-44.0;;;-146.1;100.0
45864;BME280;31579;52.354;16.974;2023-04-05T05:45:20;-43.0;;;-146.1;100.0
45864;BME280;31579;52.354;16.974;2023-04-05T05:46:23;-47.6;;;-146.1;100.0
45864;BME280;31579;52.354;16.974;2023-04-05T05:47:27;-38.9;;;-146.1;100.0
45864;BME280;31579;52.354;16.974;2023-04-05T05:48:32;-39.7;;;-146.1;100.0
45864;BME280;31579;52.354;16.974;2023-04-05T05:49:35;-36.0;;;-146.1;100.0
45864;BME280;31579;52.354;16.974;2023-04-05T05:50:39;-34.6;;;-146.1;100.0
45864;BME280;31579;52.354;16.974;2023-04-05T05:51:44;-35.7;;;-146.1;100.0
45864;BME280;31579;52.354;16.974;2023-04-05T05:52:48;-42.0;;;-146.1;100.0
45864;BME280;31579;52.354;16.974;2023-04-05T05:53:50;-82.0;;;-146.1;100.0
45864;BME280;31579;52.354;16.974;2023-04-05T05:54:52;-98.9;;;-146.1;100.0
45864;BME280;31579;52.354;16.974;2023-04-05T05:55:56;-74.5;;;-146.1;100.0
45864;BME280;31579;52.354;16.974;2023-04-05T05:57:00;-82.5;;;-146.1;100.0
45864;BME280;31579;52.354;16.974;2023-04-05T05:58:04;-76.9;;;-146.1;100.0
45864;BME280;31579;52.354;16.974;2023-04-05T05:59:08;-73.2;;;-146.1;100.0
45864;BME280;31579;52.354;16.974;2023-04-05T06:00:13;-57.1;;;-146.1;100.0